sensor_id;sensor_type;location;lat;lon;timestamp;temperature;humidity
17128;DHT22;8679;50.842;4.322;2022-08-24T00:00:10;21.50;99.90
17128;DHT22;8679;50.842;4.322;2022-08-24T00:02:37;21.50;99.90
17128;DHT22;8679;50.842;4.322;2022-08-24T00:05:03;21.40;99.90
17128;DHT22;8679;50.842;4.322;2022-08-24T00:07:29;21.40;99.90
17128;DHT22;8679;50.842;4.322;2022-08-24T00:09:56;21.40;99.90
17128;DHT22;8679;50.842;4.322;2022-08-24T00:12:22;21.40;99.90
17128;DHT22;8679;50.842;4.322;2022-08-24T00:14:47;21.40;99.90
17128;DHT22;8679;50.842;4.322;2022-08-24T00:17:15;21.40;99.90
17128;DHT22;8679;50.842;4.322;2022-08-24T00:19:41;21.40;99.90
17128;DHT22;8679;50.842;4.322;2022-08-24T00:22:07;21.40;99.90
17128;DHT22;8679;50.842;4.322;2022-08-24T00:24:35;21.40;99.90
17128;DHT22;8679;50.842;4.322;2022-08-24T00:27:00;21.40;99.90
17128;DHT22;8679;50.842;4.322;2022-08-24T00:29:26;21.40;99.90
17128;DHT22;8679;50.842;4.322;2022-08-24T00:31:52;21.40;99.90
17128;DHT22;8679;50.842;4.322;2022-08-24T00:34:18;21.40;99.90
17128;DHT22;8679;50.842;4.322;2022-08-24T00:36:45;21.40;99.90
17128;DHT22;8679;50.842;4.322;2022-08-24T00:39:11;21.40;99.90
17128;DHT22;8679;50.842;4.322;2022-08-24T00:41:42;21.40;99.90
17128;DHT22;8679;50.842;4.322;2022-08-24T00:44:09;21.40;99.90
17128;DHT22;8679;50.842;4.322;2022-08-24T00:50:13;21.40;99.90
17128;DHT22;8679;50.842;4.322;2022-08-24T00:52:46;21.30;99.90
17128;DHT22;8679;50.842;4.322;2022-08-24T00:55:17;21.30;99.90
17128;DHT22;8679;50.842;4.322;2022-08-24T00:57:48;21.30;99.90
17128;DHT22;8679;50.842;4.322;2022-08-24T01:00:38;21.30;99.90
17128;DHT22;8679;50.842;4.322;2022-08-24T01:03:07;21.30;99.90
17128;DHT22;8679;50.842;4.322;2022-08-24T01:05:35;21.30;99.90
17128;DHT22;8679;50.842;4.322;2022-08-24T01:08:02;21.20;99.90
17128;DHT22;8679;50.842;4.322;2022-08-24T01:10:32;21.20;99.90
17128;DHT22;8679;50.842;4.322;2022-08-24T01:13:02;21.20;99.90
17128;DHT22;8679;50.842;4.322;2022-08-24T01:15:33;21.20;99.90
17128;DHT22;8679;50.842;4.322;2022-08-24T01:18:00;21.20;99.90
17128;DHT22;8679;50.842;4.322;2022-08-24T01:20:48;21.20;99.90
17128;DHT22;8679;50.842;4.322;2022-08-24T01:23:41;21.20;99.90
17128;DHT22;8679;50.842;4.322;2022-08-24T01:26:10;21.20;99.90
17128;DHT22;8679;50.842;4.322;2022-08-24T01:28:38;21.20;99.90
17128;DHT22;8679;50.842;4.322;2022-08-24T01:31:05;21.20;99.90
17128;DHT22;8679;50.842;4.322;2022-08-24T01:33:32;21.20;99.90
17128;DHT22;8679;50.842;4.322;2022-08-24T01:36:01;21.20;99.90
17128;DHT22;8679;50.842;4.322;2022-08-24T01:38:28;21.20;99.90
17128;DHT22;8679;50.842;4.322;2022-08-24T01:40:56;21.10;99.90
17128;DHT22;8679;50.842;4.322;2022-08-24T01:43:24;21.10;99.90
17128;DHT22;8679;50.842;4.322;2022-08-24T01:45:50;21.10;99.90
17128;DHT22;8679;50.842;4.322;2022-08-24T01:48:16;21.10;99.90
17128;DHT22;8679;50.842;4.322;2022-08-24T01:50:42;21.00;99.90
17128;DHT22;8679;50.842;4.322;2022-08-24T01:53:08;21.00;99.90
17128;DHT22;8679;50.842;4.322;2022-08-24T01:55:35;21.00;99.90
17128;DHT22;8679;50.842;4.322;2022-08-24T01:58:01;21.00;99.90
17128;DHT22;8679;50.842;4.322;2022-08-24T02:00:27;21.00;99.90
17128;DHT22;8679;50.842;4.322;2022-08-24T02:02:53;20.90;99.90
17128;DHT22;8679;50.842;4.322;2022-08-24T02:05:21;20.90;99.90
17128;DHT22;8679;50.842;4.322;2022-08-24T02:07:49;20.90;99.90
17128;DHT22;8679;50.842;4.322;2022-08-24T02:10:15;20.90;99.90
17128;DHT22;8679;50.842;4.322;2022-08-24T02:12:44;21.00;99.90
17128;DHT22;8679;50.842;4.322;2022-08-24T02:15:11;21.00;99.90
17128;DHT22;8679;50.842;4.322;2022-08-24T02:17:38;21.00;99.90
17128;DHT22;8679;50.842;4.322;2022-08-24T02:20:06;21.00;99.90
17128;DHT22;8679;50.842;4.322;2022-08-24T02:22:32;21.00;99.90
17128;DHT22;8679;50.842;4.322;2022-08-24T02:24:58;20.90;99.90
17128;DHT22;8679;50.842;4.322;2022-08-24T02:27:23;20.90;99.90
17128;DHT22;8679;50.842;4.322;2022-08-24T02:29:49;20.90;99.90
17128;DHT22;8679;50.842;4.322;2022-08-24T02:32:15;20.90;99.90
17128;DHT22;8679;50.842;4.322;2022-08-24T02:34:41;20.80;99.90
17128;DHT22;8679;50.842;4.322;2022-08-24T02:37:08;20.80;99.90
17128;DHT22;8679;50.842;4.322;2022-08-24T02:39:34;20.80;99.90
17128;DHT22;8679;50.842;4.322;2022-08-24T02:41:59;20.80;99.90
17128;DHT22;8679;50.842;4.322;2022-08-24T02:44:25;20.80;99.90
17128;DHT22;8679;50.842;4.322;2022-08-24T02:46:51;20.80;99.90
17128;DHT22;8679;50.842;4.322;2022-08-24T02:49:17;20.80;99.90
17128;DHT22;8679;50.842;4.322;2022-08-24T02:51:45;20.80;99.90
17128;DHT22;8679;50.842;4.322;2022-08-24T02:54:13;20.80;99.90
17128;DHT22;8679;50.842;4.322;2022-08-24T02:56:42;20.80;99.90
17128;DHT22;8679;50.842;4.322;2022-08-24T02:59:08;20.70;99.90
17128;DHT22;8679;50.842;4.322;2022-08-24T03:01:34;20.70;99.90
17128;DHT22;8679;50.842;4.322;2022-08-24T03:03:59;20.70;99.90
17128;DHT22;8679;50.842;4.322;2022-08-24T03:06:25;20.60;99.90
17128;DHT22;8679;50.842;4.322;2022-08-24T03:08:51;20.70;99.90
17128;DHT22;8679;50.842;4.322;2022-08-24T03:11:16;20.70;99.90
17128;DHT22;8679;50.842;4.322;2022-08-24T03:13:42;20.60;99.90
17128;DHT22;8679;50.842;4.322;2022-08-24T03:16:08;20.60;99.90
17128;DHT22;8679;50.842;4.322;2022-08-24T03:18:34;20.60;99.90
17128;DHT22;8679;50.842;4.322;2022-08-24T03:21:00;20.60;99.90
17128;DHT22;8679;50.842;4.322;2022-08-24T03:23:27;20.60;99.90
17128;DHT22;8679;50.842;4.322;2022-08-24T03:25:53;20.60;99.90
17128;DHT22;8679;50.842;4.322;2022-08-24T03:28:21;20.50;99.90
17128;DHT22;8679;50.842;4.322;2022-08-24T03:30:48;20.50;99.90
17128;DHT22;8679;50.842;4.322;2022-08-24T03:33:14;20.50;99.90
17128;DHT22;8679;50.842;4.322;2022-08-24T03:35:40;20.50;99.90
17128;DHT22;8679;50.842;4.322;2022-08-24T03:38:06;20.50;99.90
17128;DHT22;8679;50.842;4.322;2022-08-24T03:40:32;20.50;99.90
17128;DHT22;8679;50.842;4.322;2022-08-24T03:43:00;20.50;99.90
17128;DHT22;8679;50.842;4.322;2022-08-24T03:45:26;20.40;99.90
17128;DHT22;8679;50.842;4.322;2022-08-24T03:47:52;20.40;99.90
17128;DHT22;8679;50.842;4.322;2022-08-24T03:50:19;20.40;99.90
17128;DHT22;8679;50.842;4.322;2022-08-24T03:52:45;20.40;99.90
17128;DHT22;8679;50.842;4.322;2022-08-24T03:55:11;20.40;99.90
17128;DHT22;8679;50.842;4.322;2022-08-24T03:57:38;20.40;99.90
17128;DHT22;8679;50.842;4.322;2022-08-24T04:00:05;20.30;99.90
17128;DHT22;8679;50.842;4.322;2022-08-24T04:02:31;20.30;99.90
17128;DHT22;8679;50.842;4.322;2022-08-24T04:04:58;20.30;99.90
17128;DHT22;8679;50.842;4.322;2022-08-24T04:07:23;20.30;99.90
17128;DHT22;8679;50.842;4.322;2022-08-24T04:09:49;20.20;99.90
17128;DHT22;8679;50.842;4.322;2022-08-24T04:12:15;20.20;99.90
17128;DHT22;8679;50.842;4.322;2022-08-24T04:14:41;20.20;99.90
17128;DHT22;8679;50.842;4.322;2022-08-24T04:17:07;20.20;99.90
17128;DHT22;8679;50.842;4.322;2022-08-24T04:19:33;20.20;99.90
17128;DHT22;8679;50.842;4.322;2022-08-24T04:21:59;20.20;99.90
17128;DHT22;8679;50.842;4.322;2022-08-24T04:24:27;20.20;99.90
17128;DHT22;8679;50.842;4.322;2022-08-24T04:26:53;20.20;99.90
17128;DHT22;8679;50.842;4.322;2022-08-24T04:29:19;20.20;99.90
17128;DHT22;8679;50.842;4.322;2022-08-24T04:31:46;20.10;99.90
17128;DHT22;8679;50.842;4.322;2022-08-24T04:34:13;20.10;99.90
17128;DHT22;8679;50.842;4.322;2022-08-24T04:36:40;20.10;99.90
17128;DHT22;8679;50.842;4.322;2022-08-24T04:39:07;20.10;99.90
17128;DHT22;8679;50.842;4.322;2022-08-24T04:41:32;20.10;99.90
17128;DHT22;8679;50.842;4.322;2022-08-24T04:43:59;20.10;99.90
17128;DHT22;8679;50.842;4.322;2022-08-24T04:46:25;20.10;99.90
17128;DHT22;8679;50.842;4.322;2022-08-24T04:48:51;20.10;99.90
17128;DHT22;8679;50.842;4.322;2022-08-24T04:51:18;20.10;99.90
17128;DHT22;8679;50.842;4.322;2022-08-24T04:53:45;20.10;99.90
17128;DHT22;8679;50.842;4.322;2022-08-24T04:56:14;20.10;99.90
17128;DHT22;8679;50.842;4.322;2022-08-24T04:58:40;20.10;99.90
17128;DHT22;8679;50.842;4.322;2022-08-24T05:01:13;20.10;99.90
17128;DHT22;8679;50.842;4.322;2022-08-24T05:03:42;20.10;99.90
17128;DHT22;8679;50.842;4.322;2022-08-24T05:06:11;20.10;99.90
17128;DHT22;8679;50.842;4.322;2022-08-24T05:08:38;20.10;99.90
17128;DHT22;8679;50.842;4.322;2022-08-24T05:11:04;20.10;99.90
17128;DHT22;8679;50.842;4.322;2022-08-24T05:13:34;20.10;99.90
17128;DHT22;8679;50.842;4.322;2022-08-24T05:16:00;20.10;99.90
17128;DHT22;8679;50.842;4.322;2022-08-24T05:18:30;20.10;99.90
17128;DHT22;8679;50.842;4.322;2022-08-24T05:20:58;20.10;99.90
17128;DHT22;8679;50.842;4.322;2022-08-24T05:23:24;20.20;99.90
17128;DHT22;8679;50.842;4.322;2022-08-24T05:25:50;20.20;99.90
17128;DHT22;8679;50.842;4.322;2022-08-24T05:28:15;20.30;99.90
17128;DHT22;8679;50.842;4.322;2022-08-24T05:30:42;20.30;99.90
17128;DHT22;8679;50.842;4.322;2022-08-24T05:33:08;20.30;99.90
17128;DHT22;8679;50.842;4.322;2022-08-24T05:35:38;20.30;99.90
17128;DHT22;8679;50.842;4.322;2022-08-24T05:38:05;20.40;99.90
17128;DHT22;8679;50.842;4.322;2022-08-24T05:40:31;20.60;99.90
17128;DHT22;8679;50.842;4.322;2022-08-24T05:42:57;20.80;99.90
17128;DHT22;8679;50.842;4.322;2022-08-24T05:45:22;21.10;99.90
17128;DHT22;8679;50.842;4.322;2022-08-24T05:47:48;21.20;99.90
17128;DHT22;8679;50.842;4.322;2022-08-24T05:50:14;21.20;99.90
17128;DHT22;8679;50.842;4.322;2022-08-24T05:52:40;21.20;99.90
17128;DHT22;8679;50.842;4.322;2022-08-24T05:55:06;21.20;99.90
17128;DHT22;8679;50.842;4.322;2022-08-24T05:57:34;21.20;99.90
17128;DHT22;8679;50.842;4.322;2022-08-24T06:00:00;21.30;99.90
17128;DHT22;8679;50.842;4.322;2022-08-24T06:02:26;21.30;99.90
17128;DHT22;8679;50.842;4.322;2022-08-24T06:04:51;21.30;99.90
17128;DHT22;8679;50.842;4.322;2022-08-24T06:07:17;21.40;99.90
17128;DHT22;8679;50.842;4.322;2022-08-24T06:09:43;21.50;99.90
17128;DHT22;8679;50.842;4.322;2022-08-24T06:12:09;21.50;99.90
17128;DHT22;8679;50.842;4.322;2022-08-24T06:14:36;21.60;99.90
17128;DHT22;8679;50.842;4.322;2022-08-24T06:17:06;21.70;99.90
17128;DHT22;8679;50.842;4.322;2022-08-24T06:19:33;21.80;99.90
17128;DHT22;8679;50.842;4.322;2022-08-24T06:21:59;21.90;99.90
17128;DHT22;8679;50.842;4.322;2022-08-24T06:24:26;22.00;99.90
17128;DHT22;8679;50.842;4.322;2022-08-24T06:27:12;22.10;99.90
17128;DHT22;8679;50.842;4.322;2022-08-24T06:29:59;22.20;99.90
17128;DHT22;8679;50.842;4.322;2022-08-24T06:32:26;22.20;99.90
17128;DHT22;8679;50.842;4.322;2022-08-24T06:34:55;22.30;99.90
17128;DHT22;8679;50.842;4.322;2022-08-24T06:37:21;22.40;99.90
17128;DHT22;8679;50.842;4.322;2022-08-24T06:39:51;22.50;99.90
17128;DHT22;8679;50.842;4.322;2022-08-24T06:42:17;22.50;99.90
17128;DHT22;8679;50.842;4.322;2022-08-24T06:44:43;22.60;99.90
17128;DHT22;8679;50.842;4.322;2022-08-24T06:47:09;22.70;99.90
17128;DHT22;8679;50.842;4.322;2022-08-24T06:49:36;22.80;99.90
17128;DHT22;8679;50.842;4.322;2022-08-24T06:52:04;22.90;99.90
17128;DHT22;8679;50.842;4.322;2022-08-24T06:54:30;23.00;99.90
17128;DHT22;8679;50.842;4.322;2022-08-24T06:56:56;23.00;99.90
17128;DHT22;8679;50.842;4.322;2022-08-24T06:59:24;23.10;99.90
17128;DHT22;8679;50.842;4.322;2022-08-24T07:01:53;23.20;99.90
17128;DHT22;8679;50.842;4.322;2022-08-24T07:04:21;23.20;99.90
17128;DHT22;8679;50.842;4.322;2022-08-24T07:06:47;23.30;99.90
17128;DHT22;8679;50.842;4.322;2022-08-24T07:09:13;23.40;99.90
17128;DHT22;8679;50.842;4.322;2022-08-24T07:11:38;23.50;99.90
17128;DHT22;8679;50.842;4.322;2022-08-24T07:14:05;23.60;99.90
17128;DHT22;8679;50.842;4.322;2022-08-24T07:16:31;23.70;99.90
17128;DHT22;8679;50.842;4.322;2022-08-24T07:18:57;23.80;99.90
17128;DHT22;8679;50.842;4.322;2022-08-24T07:21:23;23.90;99.90
17128;DHT22;8679;50.842;4.322;2022-08-24T07:23:49;24.00;99.90
17128;DHT22;8679;50.842;4.322;2022-08-24T07:26:21;24.10;99.90
17128;DHT22;8679;50.842;4.322;2022-08-24T07:28:58;24.20;99.90
17128;DHT22;8679;50.842;4.322;2022-08-24T07:31:30;24.30;99.90
17128;DHT22;8679;50.842;4.322;2022-08-24T07:33:56;24.50;99.90
17128;DHT22;8679;50.842;4.322;2022-08-24T07:36:22;24.60;99.90
17128;DHT22;8679;50.842;4.322;2022-08-24T07:38:51;24.70;99.90
17128;DHT22;8679;50.842;4.322;2022-08-24T07:41:17;24.70;99.90
17128;DHT22;8679;50.842;4.322;2022-08-24T07:43:45;24.70;99.90
17128;DHT22;8679;50.842;4.322;2022-08-24T07:46:11;24.80;99.90
17128;DHT22;8679;50.842;4.322;2022-08-24T07:48:38;24.80;99.90
17128;DHT22;8679;50.842;4.322;2022-08-24T07:51:14;24.80;99.90
17128;DHT22;8679;50.842;4.322;2022-08-24T07:53:41;24.70;99.90
17128;DHT22;8679;50.842;4.322;2022-08-24T07:56:07;24.80;99.90
17128;DHT22;8679;50.842;4.322;2022-08-24T07:58:33;24.80;99.90
17128;DHT22;8679;50.842;4.322;2022-08-24T08:00:59;24.80;99.90
17128;DHT22;8679;50.842;4.322;2022-08-24T08:03:25;24.90;99.90
17128;DHT22;8679;50.842;4.322;2022-08-24T08:05:59;24.90;99.90
17128;DHT22;8679;50.842;4.322;2022-08-24T08:08:26;25.00;99.90
17128;DHT22;8679;50.842;4.322;2022-08-24T08:10:52;25.00;99.90
17128;DHT22;8679;50.842;4.322;2022-08-24T08:13:18;25.10;99.90
17128;DHT22;8679;50.842;4.322;2022-08-24T08:15:44;25.20;99.90
17128;DHT22;8679;50.842;4.322;2022-08-24T08:18:10;25.30;99.90
17128;DHT22;8679;50.842;4.322;2022-08-24T08:20:38;25.40;99.90
17128;DHT22;8679;50.842;4.322;2022-08-24T08:23:04;25.40;99.90
17128;DHT22;8679;50.842;4.322;2022-08-24T08:25:49;25.50;99.90
17128;DHT22;8679;50.842;4.322;2022-08-24T08:28:17;25.60;99.90
17128;DHT22;8679;50.842;4.322;2022-08-24T08:30:44;25.60;99.90
17128;DHT22;8679;50.842;4.322;2022-08-24T08:33:11;25.60;99.90
17128;DHT22;8679;50.842;4.322;2022-08-24T08:35:37;25.70;99.90
17128;DHT22;8679;50.842;4.322;2022-08-24T08:38:04;25.70;99.90
17128;DHT22;8679;50.842;4.322;2022-08-24T08:46:34;25.80;99.90
17128;DHT22;8679;50.842;4.322;2022-08-24T08:49:18;25.80;99.90
17128;DHT22;8679;50.842;4.322;2022-08-24T08:51:57;25.90;99.90
17128;DHT22;8679;50.842;4.322;2022-08-24T09:05:26;25.90;99.90
17128;DHT22;8679;50.842;4.322;2022-08-24T09:11:14;25.80;99.90
17128;DHT22;8679;50.842;4.322;2022-08-24T09:17:16;25.90;99.90
17128;DHT22;8679;50.842;4.322;2022-08-24T09:22:13;26.10;99.90
17128;DHT22;8679;50.842;4.322;2022-08-24T09:24:57;26.20;99.90
17128;DHT22;8679;50.842;4.322;2022-08-24T09:30:39;26.40;99.90
17128;DHT22;8679;50.842;4.322;2022-08-24T09:33:21;26.60;99.90
17128;DHT22;8679;50.842;4.322;2022-08-24T09:59:13;27.20;99.90
17128;DHT22;8679;50.842;4.322;2022-08-24T10:07:17;27.50;99.90
17128;DHT22;8679;50.842;4.322;2022-08-24T10:15:33;27.70;99.90
17128;DHT22;8679;50.842;4.322;2022-08-24T10:18:34;27.70;99.90
17128;DHT22;8679;50.842;4.322;2022-08-24T10:32:32;28.00;99.90
17128;DHT22;8679;50.842;4.322;2022-08-24T10:35:16;28.10;99.90
17128;DHT22;8679;50.842;4.322;2022-08-24T10:38:11;28.20;99.90
17128;DHT22;8679;50.842;4.322;2022-08-24T10:44:24;28.30;99.90
17128;DHT22;8679;50.842;4.322;2022-08-24T10:46:58;28.20;99.90
17128;DHT22;8679;50.842;4.322;2022-08-24T10:49:44;28.40;99.90
17128;DHT22;8679;50.842;4.322;2022-08-24T10:54:44;28.40;99.90
17128;DHT22;8679;50.842;4.322;2022-08-24T10:57:35;28.50;99.90
17128;DHT22;8679;50.842;4.322;2022-08-24T11:00:08;28.70;99.90
17128;DHT22;8679;50.842;4.322;2022-08-24T11:02:38;28.70;99.90
17128;DHT22;8679;50.842;4.322;2022-08-24T11:05:09;28.80;99.90
17128;DHT22;8679;50.842;4.322;2022-08-24T11:07:37;28.90;99.90
17128;DHT22;8679;50.842;4.322;2022-08-24T11:10:24;29.00;99.90
17128;DHT22;8679;50.842;4.322;2022-08-24T11:12:50;29.20;99.90
17128;DHT22;8679;50.842;4.322;2022-08-24T11:15:25;29.40;99.90
17128;DHT22;8679;50.842;4.322;2022-08-24T11:18:00;29.50;99.90
17128;DHT22;8679;50.842;4.322;2022-08-24T11:20:34;29.60;99.90
17128;DHT22;8679;50.842;4.322;2022-08-24T11:25:36;29.70;99.90
17128;DHT22;8679;50.842;4.322;2022-08-24T11:28:30;29.90;99.90
17128;DHT22;8679;50.842;4.322;2022-08-24T11:30:57;30.00;99.90
17128;DHT22;8679;50.842;4.322;2022-08-24T11:33:30;30.20;99.90
17128;DHT22;8679;50.842;4.322;2022-08-24T11:35:57;30.20;99.90
17128;DHT22;8679;50.842;4.322;2022-08-24T11:38:27;30.30;99.90
17128;DHT22;8679;50.842;4.322;2022-08-24T11:41:02;30.50;99.90
17128;DHT22;8679;50.842;4.322;2022-08-24T11:49:02;31.30;99.90
17128;DHT22;8679;50.842;4.322;2022-08-24T11:54:22;31.70;99.90
17128;DHT22;8679;50.842;4.322;2022-08-24T11:57:07;31.80;99.90
17128;DHT22;8679;50.842;4.322;2022-08-24T12:00:10;32.00;99.90
17128;DHT22;8679;50.842;4.322;2022-08-24T12:11:13;32.70;99.90
17128;DHT22;8679;50.842;4.322;2022-08-24T12:21:15;32.70;99.90
17128;DHT22;8679;50.842;4.322;2022-08-24T12:23:45;32.80;99.90
17128;DHT22;8679;50.842;4.322;2022-08-24T12:26:28;32.50;99.90
17128;DHT22;8679;50.842;4.322;2022-08-24T12:29:48;32.50;99.90
17128;DHT22;8679;50.842;4.322;2022-08-24T12:32:12;32.90;99.90
17128;DHT22;8679;50.842;4.322;2022-08-24T12:40:17;35.00;96.90
17128;DHT22;8679;50.842;4.322;2022-08-24T12:42:53;35.60;94.10
17128;DHT22;8679;50.842;4.322;2022-08-24T12:45:22;35.90;90.50
17128;DHT22;8679;50.842;4.322;2022-08-24T12:50:37;36.70;83.40
17128;DHT22;8679;50.842;4.322;2022-08-24T13:01:21;37.90;64.10
17128;DHT22;8679;50.842;4.322;2022-08-24T13:06:53;38.50;57.30
17128;DHT22;8679;50.842;4.322;2022-08-24T13:09:44;38.70;54.40
17128;DHT22;8679;50.842;4.322;2022-08-24T13:18:46;37.40;49.00
17128;DHT22;8679;50.842;4.322;2022-08-24T13:44:28;36.40;49.50
17128;DHT22;8679;50.842;4.322;2022-08-24T13:47:15;36.20;48.00
17128;DHT22;8679;50.842;4.322;2022-08-24T14:00:30;35.70;48.90
17128;DHT22;8679;50.842;4.322;2022-08-24T14:03:39;35.20;48.20
17128;DHT22;8679;50.842;4.322;2022-08-24T14:06:19;35.20;49.80
17128;DHT22;8679;50.842;4.322;2022-08-24T14:08:56;35.10;49.20
17128;DHT22;8679;50.842;4.322;2022-08-24T14:25:21;35.60;46.20
17128;DHT22;8679;50.842;4.322;2022-08-24T14:31:17;35.30;46.70
17128;DHT22;8679;50.842;4.322;2022-08-24T14:36:50;34.70;47.70
17128;DHT22;8679;50.842;4.322;2022-08-24T14:39:35;34.60;47.90
17128;DHT22;8679;50.842;4.322;2022-08-24T14:42:20;34.50;47.70
17128;DHT22;8679;50.842;4.322;2022-08-24T14:53:37;33.70;51.70
17128;DHT22;8679;50.842;4.322;2022-08-24T15:07:40;33.10;53.20
17128;DHT22;8679;50.842;4.322;2022-08-24T15:10:19;33.00;53.00
17128;DHT22;8679;50.842;4.322;2022-08-24T15:12:58;33.00;52.50
17128;DHT22;8679;50.842;4.322;2022-08-24T15:15:39;32.80;53.60
17128;DHT22;8679;50.842;4.322;2022-08-24T15:29:20;31.80;58.60
17128;DHT22;8679;50.842;4.322;2022-08-24T15:34:48;31.80;59.70
17128;DHT22;8679;50.842;4.322;2022-08-24T15:39:51;32.10;61.10
17128;DHT22;8679;50.842;4.322;2022-08-24T15:42:17;32.30;58.90
17128;DHT22;8679;50.842;4.322;2022-08-24T15:44:45;32.70;58.20
17128;DHT22;8679;50.842;4.322;2022-08-24T15:47:30;33.00;57.80
17128;DHT22;8679;50.842;4.322;2022-08-24T15:50:07;33.30;56.70
17128;DHT22;8679;50.842;4.322;2022-08-24T15:55:32;35.20;53.40
17128;DHT22;8679;50.842;4.322;2022-08-24T16:00:37;38.00;45.20
17128;DHT22;8679;50.842;4.322;2022-08-24T16:05:52;38.10;43.80
17128;DHT22;8679;50.842;4.322;2022-08-24T16:08:18;39.00;41.50
17128;DHT22;8679;50.842;4.322;2022-08-24T16:10:49;38.80;40.00
17128;DHT22;8679;50.842;4.322;2022-08-24T16:16:06;37.40;42.60
17128;DHT22;8679;50.842;4.322;2022-08-24T16:18:54;38.00;40.70
17128;DHT22;8679;50.842;4.322;2022-08-24T16:21:56;37.90;39.70
17128;DHT22;8679;50.842;4.322;2022-08-24T16:24:26;39.30;38.30
17128;DHT22;8679;50.842;4.322;2022-08-24T16:27:05;40.10;36.00
17128;DHT22;8679;50.842;4.322;2022-08-24T16:32:17;40.60;31.10
17128;DHT22;8679;50.842;4.322;2022-08-24T16:34:49;40.40;32.40
17128;DHT22;8679;50.842;4.322;2022-08-24T16:37:16;40.60;32.00
17128;DHT22;8679;50.842;4.322;2022-08-24T16:39:45;40.70;30.50
17128;DHT22;8679;50.842;4.322;2022-08-24T16:42:22;40.70;30.50
17128;DHT22;8679;50.842;4.322;2022-08-24T16:44:49;41.40;29.30
17128;DHT22;8679;50.842;4.322;2022-08-24T16:47:16;41.20;28.00
17128;DHT22;8679;50.842;4.322;2022-08-24T16:49:41;39.80;29.90
17128;DHT22;8679;50.842;4.322;2022-08-24T16:52:07;39.20;30.90
17128;DHT22;8679;50.842;4.322;2022-08-24T16:54:33;38.30;31.60
17128;DHT22;8679;50.842;4.322;2022-08-24T16:57:04;38.40;33.40
17128;DHT22;8679;50.842;4.322;2022-08-24T16:59:33;38.80;31.50
17128;DHT22;8679;50.842;4.322;2022-08-24T17:01:59;39.10;31.80
17128;DHT22;8679;50.842;4.322;2022-08-24T17:04:25;39.30;30.30
17128;DHT22;8679;50.842;4.322;2022-08-24T17:06:52;40.20;29.00
17128;DHT22;8679;50.842;4.322;2022-08-24T17:09:20;40.40;28.30
17128;DHT22;8679;50.842;4.322;2022-08-24T17:11:45;39.90;28.80
17128;DHT22;8679;50.842;4.322;2022-08-24T17:14:13;38.80;29.40
17128;DHT22;8679;50.842;4.322;2022-08-24T17:16:39;37.60;31.10
17128;DHT22;8679;50.842;4.322;2022-08-24T17:19:12;36.70;32.20
17128;DHT22;8679;50.842;4.322;2022-08-24T17:21:38;35.80;34.90
17128;DHT22;8679;50.842;4.322;2022-08-24T17:24:06;34.90;36.20
17128;DHT22;8679;50.842;4.322;2022-08-24T17:26:33;34.80;37.30
17128;DHT22;8679;50.842;4.322;2022-08-24T17:29:02;34.80;37.90
17128;DHT22;8679;50.842;4.322;2022-08-24T17:31:28;34.80;38.60
17128;DHT22;8679;50.842;4.322;2022-08-24T17:33:55;34.80;38.50
17128;DHT22;8679;50.842;4.322;2022-08-24T17:36:22;34.60;38.60
17128;DHT22;8679;50.842;4.322;2022-08-24T17:38:51;34.40;39.80
17128;DHT22;8679;50.842;4.322;2022-08-24T17:41:17;34.00;40.20
17128;DHT22;8679;50.842;4.322;2022-08-24T17:43:43;34.00;41.20
17128;DHT22;8679;50.842;4.322;2022-08-24T17:46:11;34.70;39.90
17128;DHT22;8679;50.842;4.322;2022-08-24T17:48:39;35.10;39.80
17128;DHT22;8679;50.842;4.322;2022-08-24T17:51:06;35.60;39.20
17128;DHT22;8679;50.842;4.322;2022-08-24T17:53:32;35.90;38.60
17128;DHT22;8679;50.842;4.322;2022-08-24T17:55:58;35.40;38.80
17128;DHT22;8679;50.842;4.322;2022-08-24T17:58:24;34.50;42.30
17128;DHT22;8679;50.842;4.322;2022-08-24T18:00:49;33.80;45.10
17128;DHT22;8679;50.842;4.322;2022-08-24T18:03:15;33.30;47.70
17128;DHT22;8679;50.842;4.322;2022-08-24T18:05:41;32.90;50.10
17128;DHT22;8679;50.842;4.322;2022-08-24T18:08:07;32.70;51.90
17128;DHT22;8679;50.842;4.322;2022-08-24T18:10:33;32.60;53.50
17128;DHT22;8679;50.842;4.322;2022-08-24T18:12:59;32.30;55.40
17128;DHT22;8679;50.842;4.322;2022-08-24T18:15:27;32.10;56.90
17128;DHT22;8679;50.842;4.322;2022-08-24T18:17:55;31.90;59.10
17128;DHT22;8679;50.842;4.322;2022-08-24T18:20:24;31.60;62.30
17128;DHT22;8679;50.842;4.322;2022-08-24T18:22:51;31.30;64.10
17128;DHT22;8679;50.842;4.322;2022-08-24T18:25:19;31.30;65.80
17128;DHT22;8679;50.842;4.322;2022-08-24T18:27:48;31.00;68.50
17128;DHT22;8679;50.842;4.322;2022-08-24T18:30:25;31.00;71.40
17128;DHT22;8679;50.842;4.322;2022-08-24T18:32:52;30.70;73.80
17128;DHT22;8679;50.842;4.322;2022-08-24T18:35:18;30.50;76.70
17128;DHT22;8679;50.842;4.322;2022-08-24T18:37:44;30.40;79.30
17128;DHT22;8679;50.842;4.322;2022-08-24T18:40:10;30.20;82.50
17128;DHT22;8679;50.842;4.322;2022-08-24T18:42:37;30.00;85.30
17128;DHT22;8679;50.842;4.322;2022-08-24T18:45:07;29.90;88.30
17128;DHT22;8679;50.842;4.322;2022-08-24T18:47:33;29.80;90.60
17128;DHT22;8679;50.842;4.322;2022-08-24T18:49:59;29.70;91.80
17128;DHT22;8679;50.842;4.322;2022-08-24T18:52:24;29.50;93.30
17128;DHT22;8679;50.842;4.322;2022-08-24T18:54:51;29.40;94.70
17128;DHT22;8679;50.842;4.322;2022-08-24T18:57:18;29.30;96.30
17128;DHT22;8679;50.842;4.322;2022-08-24T18:59:44;29.10;97.80
17128;DHT22;8679;50.842;4.322;2022-08-24T19:02:18;29.00;99.50
17128;DHT22;8679;50.842;4.322;2022-08-24T19:05:22;28.90;99.90
17128;DHT22;8679;50.842;4.322;2022-08-24T19:07:50;28.80;99.90
17128;DHT22;8679;50.842;4.322;2022-08-24T19:10:20;28.70;99.90
17128;DHT22;8679;50.842;4.322;2022-08-24T19:12:55;28.60;99.90
17128;DHT22;8679;50.842;4.322;2022-08-24T19:15:21;28.60;99.90
17128;DHT22;8679;50.842;4.322;2022-08-24T19:17:47;28.50;99.90
17128;DHT22;8679;50.842;4.322;2022-08-24T19:20:14;28.40;99.90
17128;DHT22;8679;50.842;4.322;2022-08-24T19:22:40;28.30;99.90
17128;DHT22;8679;50.842;4.322;2022-08-24T19:25:23;28.20;99.90
17128;DHT22;8679;50.842;4.322;2022-08-24T19:27:50;28.20;99.90
17128;DHT22;8679;50.842;4.322;2022-08-24T19:30:16;28.10;99.90
17128;DHT22;8679;50.842;4.322;2022-08-24T19:32:43;28.00;99.90
17128;DHT22;8679;50.842;4.322;2022-08-24T19:35:10;27.90;99.90
17128;DHT22;8679;50.842;4.322;2022-08-24T19:37:37;27.80;99.90
17128;DHT22;8679;50.842;4.322;2022-08-24T19:40:04;27.80;99.90
17128;DHT22;8679;50.842;4.322;2022-08-24T19:42:30;27.70;99.90
17128;DHT22;8679;50.842;4.322;2022-08-24T19:44:57;27.60;99.90
17128;DHT22;8679;50.842;4.322;2022-08-24T19:47:42;27.50;99.90
17128;DHT22;8679;50.842;4.322;2022-08-24T19:50:09;27.40;99.90
17128;DHT22;8679;50.842;4.322;2022-08-24T19:52:36;27.30;99.90
17128;DHT22;8679;50.842;4.322;2022-08-24T19:55:05;27.30;99.90
17128;DHT22;8679;50.842;4.322;2022-08-24T19:57:47;27.20;99.90
17128;DHT22;8679;50.842;4.322;2022-08-24T20:02:46;27.00;99.90
17128;DHT22;8679;50.842;4.322;2022-08-24T20:05:13;26.90;99.90